createdAt,value
2022-07-27T00:01:28.278Z,99.90
2022-07-27T00:03:55.274Z,99.90
2022-07-27T00:06:22.201Z,99.90
2022-07-27T00:08:49.076Z,99.90
2022-07-27T00:11:15.895Z,99.60
2022-07-27T00:13:42.839Z,98.70
2022-07-27T00:16:09.744Z,98.60
2022-07-27T00:18:36.682Z,98.40
2022-07-27T00:21:03.761Z,98.70
2022-07-27T00:23:30.692Z,99.90
2022-07-27T00:25:57.553Z,99.20
2022-07-27T00:28:24.411Z,99.90
2022-07-27T00:30:51.253Z,99.90
2022-07-27T00:33:18.092Z,99.90
2022-07-27T00:35:45.371Z,99.90
2022-07-27T00:38:12.207Z,99.90
2022-07-27T00:40:39.005Z,99.90
2022-07-27T00:43:05.863Z,99.90
2022-07-27T00:45:33.014Z,99.90
2022-07-27T00:47:59.916Z,99.90
2022-07-27T00:50:27.019Z,99.90
2022-07-27T00:52:53.865Z,99.90
2022-07-27T00:55:20.740Z,99.90
2022-07-27T00:57:53.149Z,99.90
2022-07-27T01:00:27.135Z,99.90
2022-07-27T01:02:54.306Z,99.90
2022-07-27T01:05:24.528Z,99.90
2022-07-27T01:08:03.771Z,99.90
2022-07-27T01:10:30.635Z,99.90
2022-07-27T01:12:57.456Z,99.90
2022-07-27T01:15:24.266Z,99.90
2022-07-27T01:17:51.131Z,99.90
2022-07-27T01:20:17.972Z,99.90
2022-07-27T01:22:44.869Z,99.90
2022-07-27T01:25:11.757Z,99.90
2022-07-27T01:27:38.591Z,99.90
2022-07-27T01:30:25.728Z,99.90
2022-07-27T01:33:06.818Z,99.90
2022-07-27T01:35:33.906Z,99.90
2022-07-27T01:38:00.829Z,99.90
2022-07-27T01:40:29.142Z,99.90
2022-07-27T01:42:56.007Z,99.90
2022-07-27T01:45:22.898Z,99.90
2022-07-27T01:47:49.749Z,99.90
2022-07-27T01:50:16.602Z,99.90
2022-07-27T01:52:43.540Z,99.90
2022-07-27T01:55:10.919Z,99.90
2022-07-27T01:57:38.353Z,99.90
2022-07-27T02:00:09.491Z,99.90
2022-07-27T02:02:39.971Z,99.90
2022-07-27T02:05:07.730Z,99.90
2022-07-27T02:07:34.640Z,99.90
2022-07-27T02:10:01.447Z,99.90
2022-07-27T02:12:36.452Z,99.90
2022-07-27T02:15:25.289Z,99.90
2022-07-27T02:17:52.614Z,99.90
2022-07-27T02:20:21.277Z,99.90
2022-07-27T02:22:48.153Z,99.90
2022-07-27T02:25:16.482Z,99.90
2022-07-27T02:27:43.774Z,99.90
2022-07-27T02:30:11.377Z,99.90
2022-07-27T02:32:38.364Z,99.90
2022-07-27T02:35:19.396Z,99.90
2022-07-27T02:37:47.661Z,99.90
2022-07-27T02:40:17.311Z,99.90
2022-07-27T02:42:45.204Z,99.90
2022-07-27T02:45:12.015Z,99.90
2022-07-27T02:47:40.117Z,99.90
2022-07-27T02:50:10.016Z,99.90
2022-07-27T02:52:37.322Z,99.90
2022-07-27T02:55:05.042Z,99.90
2022-07-27T02:57:34.416Z,99.90
2022-07-27T03:00:05.402Z,99.90
2022-07-27T03:02:32.248Z,99.90
2022-07-27T03:04:59.090Z,99.90
2022-07-27T03:07:25.930Z,99.90
2022-07-27T03:09:52.908Z,99.90
2022-07-27T03:12:19.748Z,99.90
2022-07-27T03:14:47.037Z,99.90
2022-07-27T03:17:13.863Z,99.90
2022-07-27T03:19:40.681Z,99.90
2022-07-27T03:22:07.485Z,99.90
2022-07-27T03:24:34.395Z,99.90
2022-07-27T03:27:01.199Z,99.90
2022-07-27T03:29:29.378Z,99.90
2022-07-27T03:31:56.487Z,99.90
2022-07-27T03:34:23.472Z,99.90
2022-07-27T03:36:50.612Z,99.90
2022-07-27T03:39:17.526Z,99.90
2022-07-27T03:41:44.370Z,99.90
2022-07-27T03:44:13.376Z,99.90
2022-07-27T03:46:40.198Z,99.90
2022-07-27T03:49:14.244Z,99.90
2022-07-27T03:51:42.106Z,99.90
2022-07-27T03:54:08.954Z,99.90
2022-07-27T03:56:35.923Z,99.90
2022-07-27T03:59:02.779Z,99.90
2022-07-27T04:01:29.727Z,99.90
2022-07-27T04:03:56.701Z,99.90
2022-07-27T04:06:23.565Z,99.90
2022-07-27T04:08:51.123Z,99.90
2022-07-27T04:11:23.041Z,99.90
2022-07-27T04:13:52.609Z,99.90
2022-07-27T04:16:19.605Z,99.90
2022-07-27T04:18:46.701Z,99.90
2022-07-27T04:21:16.021Z,99.90
2022-07-27T04:23:42.865Z,99.90
2022-07-27T04:26:09.942Z,99.90
2022-07-27T04:28:37.107Z,99.90
2022-07-27T04:31:04.141Z,99.90
2022-07-27T04:33:31.851Z,99.90
2022-07-27T04:35:58.671Z,99.90
2022-07-27T04:38:25.553Z,99.90
2022-07-27T04:40:57.813Z,99.90
2022-07-27T04:43:25.159Z,99.90
2022-07-27T04:45:55.123Z,99.90
2022-07-27T04:48:21.992Z,99.90
2022-07-27T04:50:48.840Z,99.90
2022-07-27T04:53:16.345Z,99.90
2022-07-27T04:55:44.318Z,99.90
2022-07-27T04:58:11.708Z,99.90
2022-07-27T05:00:38.539Z,99.90
2022-07-27T05:03:05.370Z,99.90
2022-07-27T05:05:32.362Z,99.90
2022-07-27T05:07:59.202Z,99.90
2022-07-27T05:10:26.080Z,99.90
2022-07-27T05:12:53.165Z,99.90
2022-07-27T05:15:20.176Z,99.90
2022-07-27T05:17:47.239Z,99.90
2022-07-27T05:20:14.348Z,99.90
2022-07-27T05:22:41.194Z,99.90
2022-07-27T05:25:08.560Z,99.90
2022-07-27T05:27:37.230Z,99.90
2022-07-27T05:30:22.028Z,99.90
2022-07-27T05:32:48.889Z,99.90
2022-07-27T05:35:15.795Z,99.90
2022-07-27T05:37:42.862Z,99.90
2022-07-27T05:40:10.733Z,99.90
2022-07-27T05:42:37.712Z,99.90
2022-07-27T05:45:05.069Z,99.90
2022-07-27T05:47:31.893Z,99.90
2022-07-27T05:49:59.537Z,99.90
2022-07-27T05:52:26.435Z,99.90
2022-07-27T05:54:53.276Z,99.90
2022-07-27T05:57:20.163Z,99.90
2022-07-27T05:59:47.025Z,99.90
2022-07-27T06:02:13.951Z,99.90
2022-07-27T06:04:43.143Z,99.90
2022-07-27T06:07:28.766Z,99.90
2022-07-27T06:09:55.613Z,99.90
2022-07-27T06:12:22.468Z,99.90
2022-07-27T06:14:56.868Z,99.90
2022-07-27T06:17:23.841Z,99.90
2022-07-27T06:19:50.719Z,99.90
2022-07-27T06:22:18.590Z,99.90
2022-07-27T06:24:45.394Z,99.90
2022-07-27T06:27:12.214Z,99.90
2022-07-27T06:29:39.038Z,99.90
2022-07-27T06:32:06.391Z,99.90
2022-07-27T06:34:38.405Z,99.90
2022-07-27T06:37:09.323Z,99.90
2022-07-27T06:39:36.179Z,99.90
2022-07-27T06:42:03.571Z,99.90
2022-07-27T06:44:30.514Z,99.90
2022-07-27T06:46:57.427Z,99.90
2022-07-27T06:49:24.319Z,99.90
2022-07-27T06:51:51.237Z,99.90
2022-07-27T06:54:18.036Z,99.90
2022-07-27T06:56:44.850Z,95.20
2022-07-27T06:59:12.125Z,93.50
2022-07-27T07:01:39.251Z,91.90
2022-07-27T07:04:06.819Z,89.70
2022-07-27T07:06:33.830Z,86.00
2022-07-27T07:09:00.669Z,83.30
2022-07-27T07:11:27.515Z,80.90
2022-07-27T07:13:54.372Z,78.80
2022-07-27T07:16:21.460Z,76.00
2022-07-27T07:18:52.240Z,73.20
2022-07-27T07:21:19.449Z,72.40
2022-07-27T07:23:46.267Z,71.30
2022-07-27T07:26:13.107Z,69.20
2022-07-27T07:28:39.956Z,67.40
2022-07-27T07:31:06.940Z,67.10
2022-07-27T07:33:33.884Z,66.70
2022-07-27T07:36:13.663Z,66.20
2022-07-27T07:38:42.564Z,65.60
2022-07-27T07:41:09.933Z,65.90
2022-07-27T07:43:38.712Z,65.40
2022-07-27T07:46:05.823Z,65.20
2022-07-27T07:48:32.880Z,64.80
2022-07-27T07:50:59.774Z,64.60
2022-07-27T07:53:26.588Z,64.00
2022-07-27T07:55:53.703Z,62.90
2022-07-27T07:58:20.676Z,61.80
2022-07-27T08:00:47.885Z,61.40
2022-07-27T08:03:15.192Z,59.90
2022-07-27T08:05:42.123Z,58.50
2022-07-27T08:08:09.023Z,57.80
2022-07-27T08:10:36.079Z,58.00
2022-07-27T08:13:02.956Z,57.70
2022-07-27T08:15:35.782Z,57.40
2022-07-27T08:18:06.356Z,57.60
2022-07-27T08:20:33.278Z,57.80
2022-07-27T08:23:00.658Z,57.70
2022-07-27T08:25:28.012Z,57.20
2022-07-27T08:27:55.558Z,57.30
2022-07-27T08:30:23.321Z,57.40
2022-07-27T08:32:51.616Z,58.00
2022-07-27T08:35:19.162Z,58.10
2022-07-27T08:37:46.240Z,58.00
2022-07-27T08:43:01.233Z,58.60
2022-07-27T08:45:28.597Z,58.20
2022-07-27T08:47:55.443Z,58.70
2022-07-27T08:50:25.071Z,58.80
2022-07-27T08:53:05.008Z,58.60
2022-07-27T08:55:37.423Z,58.30
2022-07-27T08:58:04.525Z,58.30
2022-07-27T09:00:32.123Z,58.20
2022-07-27T09:02:59.128Z,57.70
2022-07-27T09:05:27.745Z,57.50
2022-07-27T09:08:11.689Z,57.90
2022-07-27T09:10:38.808Z,57.70
2022-07-27T09:13:26.854Z,56.80
2022-07-27T09:16:17.564Z,54.80
2022-07-27T09:18:43.131Z,55.10
2022-07-27T09:21:17.773Z,54.70
2022-07-27T09:23:50.925Z,54.40
2022-07-27T09:26:33.856Z,53.90
2022-07-27T09:29:12.580Z,53.20
2022-07-27T09:31:48.108Z,52.50
2022-07-27T09:34:27.824Z,52.70
2022-07-27T09:36:56.194Z,52.50
2022-07-27T09:39:24.505Z,52.20
2022-07-27T09:41:52.252Z,51.80
2022-07-27T09:44:34.833Z,51.90
2022-07-27T09:47:22.818Z,51.90
2022-07-27T09:49:49.796Z,52.10
2022-07-27T09:52:27.990Z,51.10
2022-07-27T09:54:55.159Z,50.70
2022-07-27T09:57:22.098Z,50.20
2022-07-27T09:59:48.914Z,50.50
2022-07-27T10:02:15.946Z,49.90
2022-07-27T10:04:43.255Z,49.20
2022-07-27T10:07:13.566Z,48.40
2022-07-27T10:09:41.229Z,47.90
2022-07-27T10:12:08.828Z,48.00
2022-07-27T10:14:36.244Z,46.90
2022-07-27T10:17:03.137Z,47.10
2022-07-27T10:19:35.699Z,47.60
2022-07-27T10:22:02.554Z,46.80
2022-07-27T10:24:36.240Z,46.40
2022-07-27T10:27:27.928Z,46.50
2022-07-27T10:29:55.430Z,46.40
2022-07-27T10:32:31.303Z,45.70
2022-07-27T10:34:58.530Z,45.70
2022-07-27T10:37:32.890Z,45.10
2022-07-27T10:41:00.773Z,45.50
2022-07-27T10:43:27.768Z,45.00
2022-07-27T10:46:01.561Z,44.40
2022-07-27T10:48:48.687Z,44.90
2022-07-27T10:51:19.079Z,44.10
2022-07-27T10:56:45.599Z,43.30
2022-07-27T10:59:12.486Z,42.60
2022-07-27T11:01:56.287Z,42.20
2022-07-27T11:04:24.270Z,42.60
2022-07-27T11:10:03.658Z,42.40
2022-07-27T11:12:32.449Z,42.20
2022-07-27T11:14:59.557Z,41.30
2022-07-27T11:20:14.782Z,41.00
2022-07-27T11:25:28.931Z,42.00
2022-07-27T11:27:55.858Z,42.20
2022-07-27T11:30:27.452Z,42.10
2022-07-27T11:32:54.939Z,42.30
2022-07-27T11:35:22.105Z,41.60
2022-07-27T11:38:05.676Z,40.80
2022-07-27T11:43:44.008Z,40.80
2022-07-27T11:46:20.951Z,40.70
2022-07-27T11:49:06.741Z,41.70
2022-07-27T11:51:39.225Z,41.50
2022-07-27T11:54:08.240Z,40.10
2022-07-27T11:56:36.586Z,40.40
2022-07-27T11:59:06.596Z,40.70
2022-07-27T12:01:38.591Z,40.20
2022-07-27T12:04:10.346Z,39.30
2022-07-27T12:06:37.493Z,40.00
2022-07-27T12:09:05.128Z,40.00
2022-07-27T12:11:50.379Z,39.90
2022-07-27T12:14:18.160Z,39.60
2022-07-27T12:16:45.685Z,39.20
2022-07-27T12:19:12.993Z,38.20
2022-07-27T12:21:40.660Z,38.90
2022-07-27T12:24:09.615Z,39.00
2022-07-27T12:26:37.500Z,38.80
2022-07-27T12:29:09.235Z,38.80
2022-07-27T12:32:42.579Z,38.80
2022-07-27T12:35:48.341Z,38.30
2022-07-27T12:38:15.370Z,38.10
2022-07-27T12:40:50.041Z,38.20
2022-07-27T12:43:21.270Z,37.90
2022-07-27T12:45:49.410Z,37.50
2022-07-27T12:48:23.443Z,37.70
2022-07-27T12:51:05.076Z,37.30
2022-07-27T12:53:32.634Z,37.70
2022-07-27T12:56:02.761Z,38.00
2022-07-27T12:58:29.846Z,38.30
2022-07-27T13:00:56.896Z,38.10
2022-07-27T13:03:23.985Z,38.00
2022-07-27T13:05:50.889Z,37.90
2022-07-27T13:08:17.839Z,38.10
2022-07-27T13:10:44.935Z,39.70
2022-07-27T13:13:12.023Z,39.80
2022-07-27T13:15:38.976Z,40.20
2022-07-27T13:18:06.344Z,40.20
2022-07-27T13:20:35.760Z,40.50
2022-07-27T13:23:02.740Z,40.80
2022-07-27T13:25:29.717Z,41.40
2022-07-27T13:27:56.877Z,41.50
2022-07-27T13:30:25.141Z,40.70
2022-07-27T13:32:52.130Z,39.90
2022-07-27T13:35:19.041Z,40.00
2022-07-27T13:37:46.128Z,40.30
2022-07-27T13:40:13.323Z,40.00
2022-07-27T13:42:40.292Z,39.90
2022-07-27T13:45:10.927Z,39.10
2022-07-27T13:47:39.538Z,39.20
2022-07-27T13:50:15.093Z,38.40
2022-07-27T13:52:43.961Z,38.30
2022-07-27T13:55:10.922Z,38.60
2022-07-27T13:57:38.051Z,38.00
2022-07-27T14:00:05.785Z,37.90
2022-07-27T14:02:33.020Z,37.40
2022-07-27T14:05:00.050Z,36.90
2022-07-27T14:07:28.566Z,36.60
2022-07-27T14:10:14.396Z,37.50
2022-07-27T14:12:41.372Z,36.80
2022-07-27T14:15:08.884Z,36.00
2022-07-27T14:17:37.465Z,36.30
2022-07-27T14:20:05.968Z,36.40
2022-07-27T14:22:33.216Z,36.70
2022-07-27T14:25:00.310Z,35.30
2022-07-27T14:27:36.091Z,35.50
2022-07-27T14:30:06.946Z,35.30
2022-07-27T14:32:34.418Z,35.70
2022-07-27T14:35:01.472Z,35.10
2022-07-27T14:37:28.405Z,34.70
2022-07-27T14:39:55.273Z,34.10
2022-07-27T14:42:23.993Z,34.40
2022-07-27T14:44:51.268Z,34.20
2022-07-27T14:47:18.757Z,34.40
2022-07-27T14:49:45.710Z,33.90
2022-07-27T14:52:15.611Z,32.80
2022-07-27T14:54:43.333Z,34.20
2022-07-27T14:57:10.247Z,33.00
2022-07-27T14:59:37.173Z,33.40
2022-07-27T15:02:04.201Z,33.40
2022-07-27T15:04:31.690Z,32.30
2022-07-27T15:06:58.891Z,33.10
2022-07-27T15:09:28.445Z,32.70
2022-07-27T15:11:55.388Z,32.70
2022-07-27T15:14:23.094Z,32.30
2022-07-27T15:16:51.008Z,32.50
2022-07-27T15:19:17.990Z,31.90
2022-07-27T15:21:44.893Z,31.70
2022-07-27T15:24:11.987Z,32.70
2022-07-27T15:26:38.993Z,32.50
2022-07-27T15:29:05.949Z,32.90
2022-07-27T15:31:32.925Z,32.80
2022-07-27T15:34:00.364Z,31.80
2022-07-27T15:36:31.871Z,32.30
2022-07-27T15:39:00.159Z,31.70
2022-07-27T15:41:27.107Z,32.10
2022-07-27T15:43:53.998Z,32.40
2022-07-27T15:46:27.262Z,32.90
2022-07-27T15:48:55.392Z,33.00
2022-07-27T15:51:22.363Z,32.90
2022-07-27T15:53:49.201Z,32.00
2022-07-27T15:56:16.106Z,32.00
2022-07-27T15:58:43.089Z,32.60
2022-07-27T16:01:12.176Z,32.40
2022-07-27T16:03:39.347Z,31.90
2022-07-27T16:06:06.367Z,31.60
2022-07-27T16:08:33.286Z,31.50
2022-07-27T16:11:00.197Z,32.20
2022-07-27T16:13:27.107Z,32.30
2022-07-27T16:16:12.590Z,32.20
2022-07-27T16:18:39.491Z,32.00
2022-07-27T16:21:07.140Z,32.50
2022-07-27T16:23:34.072Z,32.60
2022-07-27T16:26:05.719Z,32.00
2022-07-27T16:28:37.186Z,31.90
2022-07-27T16:31:05.140Z,32.40
2022-07-27T16:33:32.123Z,31.90
2022-07-27T16:35:59.657Z,32.60
2022-07-27T16:38:26.538Z,32.80
2022-07-27T16:40:53.406Z,32.20
2022-07-27T16:43:20.192Z,32.50
2022-07-27T16:45:47.066Z,32.90
2022-07-27T16:48:14.011Z,33.40
2022-07-27T16:50:41.424Z,33.10
2022-07-27T16:53:08.334Z,33.00
2022-07-27T16:55:35.219Z,33.90
2022-07-27T16:58:02.062Z,34.30
2022-07-27T17:00:29.099Z,34.10
2022-07-27T17:02:56.016Z,33.90
2022-07-27T17:05:22.924Z,33.90
2022-07-27T17:07:52.285Z,33.50
2022-07-27T17:10:26.614Z,33.90
2022-07-27T17:12:54.152Z,33.90
2022-07-27T17:15:22.697Z,34.40
2022-07-27T17:17:49.556Z,34.90
2022-07-27T17:20:16.403Z,35.50
2022-07-27T17:22:58.403Z,36.30
2022-07-27T17:25:25.531Z,37.40
2022-07-27T17:27:52.353Z,37.80
2022-07-27T17:30:19.257Z,38.70
2022-07-27T17:32:46.152Z,39.20
2022-07-27T17:35:13.025Z,39.50
2022-07-27T17:38:04.546Z,39.80
2022-07-27T17:40:26.739Z,40.50
2022-07-27T17:42:53.535Z,40.90
2022-07-27T17:45:20.416Z,41.50
2022-07-27T17:47:47.364Z,41.70
2022-07-27T17:50:14.216Z,42.10
2022-07-27T17:52:41.461Z,42.40
2022-07-27T17:55:09.253Z,42.70
2022-07-27T17:57:36.093Z,42.80
2022-07-27T18:00:05.068Z,43.20
2022-07-27T18:02:31.917Z,43.50
2022-07-27T18:04:58.835Z,44.10
2022-07-27T18:07:25.674Z,44.40
2022-07-27T18:09:52.554Z,44.70
2022-07-27T18:12:21.801Z,45.00
2022-07-27T18:15:08.179Z,45.30
2022-07-27T18:17:38.929Z,45.50
2022-07-27T18:20:09.993Z,45.70
2022-07-27T18:22:38.598Z,45.70
2022-07-27T18:25:06.478Z,45.80
2022-07-27T18:27:35.343Z,46.00
2022-07-27T18:30:02.814Z,46.30
2022-07-27T18:32:29.703Z,46.50
2022-07-27T18:34:56.536Z,46.70
2022-07-27T18:37:23.383Z,46.90
2022-07-27T18:39:50.183Z,47.00
2022-07-27T18:42:17.030Z,47.10
2022-07-27T18:44:43.895Z,47.40
2022-07-27T18:47:10.670Z,47.60
2022-07-27T18:49:37.614Z,47.90
2022-07-27T18:52:05.309Z,48.20
2022-07-27T18:54:32.106Z,48.30
2022-07-27T18:56:59.938Z,48.70
2022-07-27T18:59:26.789Z,49.30
2022-07-27T19:01:53.636Z,49.20
2022-07-27T19:04:20.471Z,50.70
2022-07-27T19:06:51.628Z,52.80
2022-07-27T19:09:18.579Z,54.20
2022-07-27T19:11:45.532Z,55.00
2022-07-27T19:14:12.585Z,56.00
2022-07-27T19:16:39.559Z,56.80
2022-07-27T19:19:10.260Z,57.10
2022-07-27T19:21:41.297Z,57.70
2022-07-27T19:24:08.275Z,58.10
2022-07-27T19:26:35.236Z,58.60
2022-07-27T19:29:02.057Z,59.10
2022-07-27T19:31:29.082Z,59.60
2022-07-27T19:33:56.170Z,60.10
2022-07-27T19:36:23.298Z,60.30
2022-07-27T19:38:50.742Z,60.50
2022-07-27T19:41:17.649Z,61.50
2022-07-27T19:43:44.535Z,62.30
2022-07-27T19:46:11.506Z,62.80
2022-07-27T19:48:38.475Z,63.30
2022-07-27T19:51:07.305Z,63.10
2022-07-27T19:53:35.624Z,63.20
2022-07-27T19:56:03.040Z,64.70
2022-07-27T19:58:31.361Z,65.40
2022-07-27T20:00:58.383Z,66.30
2022-07-27T20:03:25.545Z,65.60
2022-07-27T20:05:52.456Z,66.70
2022-07-27T20:08:19.341Z,67.30
2022-07-27T20:10:47.545Z,67.90
2022-07-27T20:13:14.453Z,68.50
2022-07-27T20:15:41.349Z,68.00
2022-07-27T20:18:08.204Z,68.30
2022-07-27T20:20:35.315Z,68.50
2022-07-27T20:23:02.150Z,68.00
2022-07-27T20:25:29.062Z,67.50
2022-07-27T20:27:55.888Z,67.50
2022-07-27T20:30:22.805Z,68.50
2022-07-27T20:32:49.889Z,69.10
2022-07-27T20:35:16.960Z,69.30
2022-07-27T20:37:44.763Z,70.10
2022-07-27T20:40:12.056Z,69.50
2022-07-27T20:42:40.446Z,70.10
2022-07-27T20:45:10.169Z,70.80
2022-07-27T20:47:38.428Z,71.60
2022-07-27T20:50:07.857Z,72.20
2022-07-27T20:52:34.727Z,72.60
2022-07-27T20:55:01.633Z,73.30
2022-07-27T20:57:28.624Z,74.50
2022-07-27T20:59:55.527Z,74.20
2022-07-27T21:02:22.397Z,75.00
2022-07-27T21:04:49.360Z,76.20
2022-07-27T21:07:16.244Z,77.20
2022-07-27T21:09:43.093Z,77.40
2022-07-27T21:12:09.921Z,77.80
2022-07-27T21:14:36.766Z,77.80
2022-07-27T21:17:03.932Z,79.00
2022-07-27T21:19:30.868Z,79.30
2022-07-27T21:21:57.699Z,80.00
2022-07-27T21:24:26.043Z,79.90
2022-07-27T21:26:53.092Z,80.20
2022-07-27T21:29:20.410Z,80.70
2022-07-27T21:31:49.030Z,81.00
2022-07-27T21:34:17.786Z,81.80
2022-07-27T21:36:45.186Z,81.50
2022-07-27T21:39:12.331Z,81.80
2022-07-27T21:41:39.412Z,82.30
2022-07-27T21:44:06.272Z,83.20
2022-07-27T21:46:33.178Z,83.60
2022-07-27T21:49:00.018Z,84.30
2022-07-27T21:51:26.953Z,83.70
2022-07-27T21:53:53.817Z,84.30
2022-07-27T21:56:20.684Z,84.00
2022-07-27T21:58:48.786Z,84.00
2022-07-27T22:01:16.091Z,85.40
2022-07-27T22:03:43.528Z,86.40
2022-07-27T22:06:10.524Z,86.40
2022-07-27T22:08:37.553Z,86.50
2022-07-27T22:11:04.461Z,87.30
2022-07-27T22:13:31.569Z,87.80
2022-07-27T22:15:58.481Z,89.30
2022-07-27T22:18:25.403Z,89.20
2022-07-27T22:20:52.351Z,89.70
2022-07-27T22:23:19.243Z,89.60
2022-07-27T22:25:46.414Z,90.00
2022-07-27T22:28:13.254Z,90.20
2022-07-27T22:30:42.911Z,90.40
2022-07-27T22:33:26.870Z,90.70
2022-07-27T22:35:53.841Z,91.30
2022-07-27T22:38:20.714Z,91.50
2022-07-27T22:40:47.597Z,91.70
2022-07-27T22:43:16.527Z,91.80
2022-07-27T22:45:43.432Z,92.20
2022-07-27T22:48:10.297Z,92.80
2022-07-27T22:50:37.139Z,92.80
2022-07-27T22:53:04.610Z,92.90
2022-07-27T22:55:31.491Z,93.20
2022-07-27T22:57:58.307Z,93.50
2022-07-27T23:00:25.335Z,94.00
2022-07-27T23:02:52.469Z,94.50
2022-07-27T23:05:19.426Z,94.60
2022-07-27T23:07:46.376Z,95.00
2022-07-27T23:10:31.786Z,95.40
2022-07-27T23:12:58.802Z,95.70
2022-07-27T23:15:25.654Z,96.10
2022-07-27T23:17:52.505Z,96.60
2022-07-27T23:20:19.325Z,97.10
2022-07-27T23:22:49.460Z,97.20
2022-07-27T23:25:16.582Z,97.40
2022-07-27T23:27:43.892Z,97.70
2022-07-27T23:30:11.254Z,98.30
2022-07-27T23:32:38.087Z,98.40
2022-07-27T23:35:05.317Z,98.80
2022-07-27T23:37:32.105Z,99.10
2022-07-27T23:39:58.998Z,99.20
2022-07-27T23:42:25.840Z,99.40
2022-07-27T23:44:54.202Z,99.70
2022-07-27T23:47:21.275Z,99.90
2022-07-27T23:49:48.170Z,99.90
2022-07-27T23:52:14.998Z,99.90
2022-07-27T23:54:41.812Z,99.90
2022-07-27T23:57:08.648Z,99.90
2022-07-27T23:59:35.704Z,99.90
